Time;durP1;ratioP1;P1;durP2;ratioP2;P2;SDS_P1;SDS_P2;PMS_P1;PMS_P2;Temp;Humidity;BMP_temperature;BMP_pressure;BME280_temperature;BME280_humidity;BME280_pressure;Samples;Min_cycle;Max_cycle;Signal;HPM_P1;HPM_P2
2022/11/12 00:00:25;;;;;;;28.33;13.83;;;;;;;9.66;89.91;96147.22;5054518;28;20961;-78
2022/11/12 00:02:50;;;;;;;31.43;15.40;;;;;;;9.54;90.08;96122.31;5054402;28;20186;-78
2022/11/12 00:05:16;;;;;;;34.23;15.83;;;;;;;9.68;89.66;96147.88;5066037;28;20230;-78
2022/11/12 00:07:41;;;;;;;33.07;16.80;;;;;;;9.92;89.33;96168.78;5073016;28;20223;-78
2022/11/12 00:10:07;;;;;;;29.40;14.97;;;;;;;9.71;88.56;96144.88;5081416;28;20185;-78
2022/11/12 00:12:33;;;;;;;28.93;15.03;;;;;;;9.76;88.56;96153.91;5071875;28;21237;-78
2022/11/12 00:14:58;;;;;;;32.17;15.40;;;;;;;9.83;88.69;96165.38;5072471;28;20186;-76
2022/11/12 00:17:24;;;;;;;29.07;14.30;;;;;;;9.76;88.88;96148.66;5072603;28;20645;-76
2022/11/12 00:19:49;;;;;;;29.47;15.13;;;;;;;9.80;88.93;96159.63;5055746;28;20186;-77
2022/11/12 00:22:15;;;;;;;28.17;14.13;;;;;;;9.62;88.92;96140.66;5074412;28;20170;-77
2022/11/12 00:24:40;;;;;;;29.00;13.67;;;;;;;9.65;88.90;96150.84;5091135;28;20205;-77
2022/11/12 00:27:05;;;;;;;27.90;13.57;;;;;;;9.57;88.58;96148.25;5068542;28;20231;-76
2022/11/12 00:29:31;;;;;;;28.53;14.03;;;;;;;9.56;88.48;96163.22;5075095;28;20407;-77
2022/11/12 00:31:56;;;;;;;29.70;14.60;;;;;;;9.57;88.32;96175.38;5054539;28;20205;-78
2022/11/12 00:34:22;;;;;;;26.77;13.70;;;;;;;9.39;88.50;96136.19;5084504;28;20181;-77
2022/11/12 00:36:47;;;;;;;28.07;14.63;;;;;;;9.49;88.60;96162.25;5074302;28;20181;-77
2022/11/12 00:39:12;;;;;;;28.07;13.97;;;;;;;9.59;88.54;96175.19;5074458;28;20242;-77
2022/11/12 00:41:38;;;;;;;25.70;13.17;;;;;;;9.57;89.01;96174.56;5092290;28;20227;-77
2022/11/12 00:44:03;;;;;;;23.83;13.33;;;;;;;9.54;89.02;96173.06;5074156;28;20700;-77
2022/11/12 00:46:29;;;;;;;25.90;14.03;;;;;;;9.43;88.84;96152.41;5092430;28;20189;-77
2022/11/12 00:48:55;;;;;;;28.30;14.17;;;;;;;9.35;89.23;96132.25;5077315;28;20187;-77
2022/11/12 00:51:20;;;;;;;26.27;13.53;;;;;;;9.47;89.18;96158.97;5080525;28;20170;-77
2022/11/12 00:53:47;;;;;;;29.87;15.47;;;;;;;9.53;89.53;96162.72;5071988;28;20611;-78
2022/11/12 00:56:14;;;;;;;26.93;15.07;;;;;;;9.49;89.74;96158.81;5088952;28;20187;-77
2022/11/12 00:58:39;;;;;;;29.03;15.33;;;;;;;9.54;89.93;96159.94;5083772;28;20637;-77
2022/11/12 01:01:07;;;;;;;27.37;14.37;;;;;;;9.54;90.07;96145.97;5084559;28;20194;-77
2022/11/12 01:03:32;;;;;;;28.73;15.57;;;;;;;9.52;89.78;96147.94;5083745;28;20208;-77
2022/11/12 01:06:06;;;;;;;30.40;17.02;;;;;;;9.31;90.33;96138.84;5090975;28;20938;-77
2022/11/12 01:08:32;;;;;;;32.42;16.55;;;;;;;8.98;91.45;96105.84;5082578;28;20388;-78
2022/11/12 01:11:14;;;;;;;32.80;14.70;;;;;;;9.06;91.45;96121.56;5062327;28;20680;-78
2022/11/12 01:13:42;;;;;;;30.50;16.50;;;;;;;9.13;91.52;96129.56;5061872;28;20421;-78
2022/11/12 01:16:19;;;;;;;35.17;16.97;;;;;;;9.14;92.14;96129.41;5085692;28;20995;-78
2022/11/12 01:18:46;;;;;;;27.07;13.93;;;;;;;9.23;91.69;96133.63;5092139;28;20197;-78
2022/11/12 01:21:13;;;;;;;28.07;14.27;;;;;;;9.39;91.69;96144.06;5083612;28;20178;-77
2022/11/12 01:23:41;;;;;;;26.23;13.63;;;;;;;9.30;91.45;96112.75;5065384;28;20773;-78
2022/11/12 01:26:09;;;;;;;27.13;14.03;;;;;;;9.48;91.31;96141.41;5060912;28;20198;-78
2022/11/12 01:28:35;;;;;;;28.90;15.23;;;;;;;9.46;90.90;96136.31;5079877;28;20683;-78
2022/11/12 01:31:17;;;;;;;30.37;15.03;;;;;;;9.14;91.25;96095.25;5082576;28;20169;-78
2022/11/12 01:33:45;;;;;;;29.97;14.73;;;;;;;9.31;91.25;96117.00;5075072;28;20552;-78
2022/11/12 01:36:11;;;;;;;31.20;15.57;;;;;;;9.20;91.48;96099.81;5065276;28;20165;-77
2022/11/12 01:38:38;;;;;;;30.13;14.80;;;;;;;9.23;91.15;96102.09;5073466;28;20184;-77
2022/11/12 01:41:06;;;;;;;28.50;15.83;;;;;;;9.48;91.26;96129.09;5072919;28;20261;-78
2022/11/12 01:43:32;;;;;;;27.33;15.30;;;;;;;9.44;90.91;96125.97;5076823;28;20174;-77
2022/11/12 01:46:00;;;;;;;33.13;15.83;;;;;;;9.42;91.55;96119.28;5083129;28;20208;-77
2022/11/12 01:48:30;;;;;;;27.80;15.43;;;;;;;9.44;91.32;96135.66;5091646;28;20181;-77
2022/11/12 01:50:56;;;;;;;32.53;18.00;;;;;;;9.17;91.59;96087.00;5072137;28;20400;-77
2022/11/12 01:53:26;;;;;;;30.00;14.87;;;;;;;9.27;91.65;96111.28;5073314;28;20426;-77
2022/11/12 01:55:53;;;;;;;30.07;16.40;;;;;;;9.36;91.64;96120.75;5082943;28;20258;-78
2022/11/12 01:58:23;;;;;;;30.90;16.30;;;;;;;9.22;91.43;96087.34;5081396;28;20197;-77
2022/11/12 02:00:49;;;;;;;30.40;14.70;;;;;;;9.25;91.15;96096.69;5084321;28;20235;-77
2022/11/12 02:03:19;;;;;;;33.30;16.50;;;;;;;9.45;91.31;96119.72;5045402;28;20674;-77
2022/11/12 02:05:47;;;;;;;28.03;14.57;;;;;;;9.38;91.38;96107.44;5082073;28;20241;-77
2022/11/12 02:08:13;;;;;;;28.77;15.43;;;;;;;9.40;91.57;96113.34;5079428;28;20167;-77
2022/11/12 02:10:39;;;;;;;33.67;16.03;;;;;;;9.46;91.69;96118.72;5071410;28;20178;-77
2022/11/12 02:15:49;;;;;;;31.23;15.30;;;;;;;9.06;92.02;96063.78;5082773;28;20177;-77
2022/11/12 02:18:15;;;;;;;29.77;14.63;;;;;;;9.27;92.09;96098.13;5070989;28;20170;-77
2022/11/12 02:20:40;;;;;;;26.33;13.87;;;;;;;9.45;91.60;96124.16;5079514;28;20171;-77
2022/11/12 02:23:06;;;;;;;28.92;14.40;;;;;;;9.35;91.74;96129.63;5070359;28;20496;-77
2022/11/12 02:25:33;;;;;;;25.77;14.57;;;;;;;9.28;92.54;96128.69;5070799;28;20206;-77
2022/11/12 02:27:59;;;;;;;25.30;12.70;;;;;;;9.29;92.54;96134.75;5088024;28;20566;-77
2022/11/12 02:30:44;;;;;;;27.90;13.90;;;;;;;9.13;92.63;96098.88;5079250;28;20263;-77
2022/11/12 02:33:09;;;;;;;27.13;13.73;;;;;;;9.11;93.01;96098.22;5070953;28;20175;-77
2022/11/12 02:35:35;;;;;;;30.10;14.13;;;;;;;9.35;92.96;96115.66;5071035;28;20243;-77
2022/11/12 02:38:01;;;;;;;27.43;14.67;;;;;;;9.42;92.63;96116.63;5071657;28;20645;-78
2022/11/12 02:40:26;;;;;;;28.07;14.40;;;;;;;9.46;92.34;96121.38;5088554;28;20178;-77
2022/11/12 02:42:51;;;;;;;28.17;14.97;;;;;;;9.29;92.07;96083.03;5080437;28;20571;-77
2022/11/12 02:45:18;;;;;;;33.73;15.10;;;;;;;9.28;91.92;96091.06;5084645;28;20745;-77
2022/11/12 02:47:43;;;;;;;26.10;13.20;;;;;;;9.28;92.11;96086.63;5094760;28;20928;-77
2022/11/12 02:50:09;;;;;;;24.80;12.63;;;;;;;9.43;91.80;96105.94;5078846;28;20189;-76
2022/11/12 02:52:35;;;;;;;25.57;13.63;;;;;;;9.32;91.92;96092.38;5085459;28;20738;-78
2022/11/12 02:55:00;;;;;;;23.90;12.60;;;;;;;9.47;91.64;96116.94;5088795;28;20174;-77
2022/11/12 02:57:26;;;;;;;25.90;13.53;;;;;;;9.46;91.83;96120.53;5074213;28;20220;-77
2022/11/12 02:59:51;;;;;;;21.70;12.43;;;;;;;9.43;91.83;96105.94;5086687;28;20180;-77
2022/11/12 03:02:17;;;;;;;25.83;13.13;;;;;;;9.43;91.97;96113.81;5075968;28;20558;-77
2022/11/12 03:04:42;;;;;;;25.93;13.80;;;;;;;9.23;92.29;96083.72;5083589;28;20226;-78
2022/11/12 03:07:08;;;;;;;19.63;10.10;;;;;;;9.37;91.63;96106.63;5064462;28;20182;-77
2022/11/12 03:09:33;;;;;;;22.33;12.63;;;;;;;9.02;91.23;96049.31;5074104;28;20233;-77
2022/11/12 03:11:58;;;;;;;23.60;11.97;;;;;;;9.22;91.26;96074.19;5064625;28;20182;-77
2022/11/12 03:14:24;;;;;;;24.97;11.93;;;;;;;9.25;91.49;96075.66;5081237;28;20174;-77
2022/11/12 03:16:50;;;;;;;18.17;9.97;;;;;;;9.55;90.16;96124.75;5085520;28;20679;-77
2022/11/12 03:19:15;;;;;;;16.15;8.00;;;;;;;9.46;87.58;96110.03;5094024;28;20499;-77
2022/11/12 03:21:41;;;;;;;10.10;6.00;;;;;;;9.28;85.07;96078.75;5093601;28;20419;-77
2022/11/12 03:24:06;;;;;;;10.90;6.30;;;;;;;9.55;84.62;96129.22;5092292;28;20554;-77
2022/11/12 03:26:31;;;;;;;8.87;5.63;;;;;;;9.51;83.51;96127.94;5093999;28;20738;-77
2022/11/12 03:28:57;;;;;;;10.30;6.07;;;;;;;9.50;83.52;96123.66;5084090;28;20253;-77
2022/11/12 03:31:22;;;;;;;8.20;5.13;;;;;;;9.39;82.77;96104.66;5073725;28;20202;-77
2022/11/12 03:33:48;;;;;;;7.57;5.30;;;;;;;9.39;82.43;96115.16;5073447;28;20836;-77
2022/11/12 03:36:13;;;;;;;9.95;6.00;;;;;;;9.50;82.07;96128.91;5071828;28;20530;-77
2022/11/12 03:38:38;;;;;;;7.00;4.93;;;;;;;9.45;81.58;96124.16;5056114;28;20175;-77
2022/11/12 03:41:04;;;;;;;8.13;4.90;;;;;;;9.44;82.18;96133.84;5083216;28;20616;-77
2022/11/12 03:43:29;;;;;;;7.40;4.60;;;;;;;9.48;82.09;96141.41;5080230;28;20459;-77
2022/11/12 03:45:54;;;;;;;6.03;4.30;;;;;;;9.42;81.84;96133.22;5088443;28;20454;-76
2022/11/12 03:48:20;;;;;;;6.53;4.43;;;;;;;9.17;82.21;96084.38;5082452;28;20181;-76
2022/11/12 03:50:45;;;;;;;7.23;3.63;;;;;;;9.29;80.99;96105.84;5087887;28;20256;-76
2022/11/12 03:53:11;;;;;;;6.47;3.63;;;;;;;9.52;81.25;96130.34;5075662;28;20188;-76
2022/11/12 03:55:36;;;;;;;6.30;3.87;;;;;;;9.42;81.06;96122.72;5062323;28;20177;-76
2022/11/12 03:58:02;;;;;;;7.63;4.43;;;;;;;9.08;81.18;96067.06;5073011;28;20874;-76
2022/11/12 04:00:28;;;;;;;5.50;3.70;;;;;;;9.45;80.81;96129.41;5075717;28;20205;-77
2022/11/12 04:02:55;;;;;;;6.17;3.93;;;;;;;9.24;80.34;96110.81;5085049;28;20655;-76
2022/11/12 04:08:35;;;;;;;6.83;3.93;;;;;;;9.12;80.46;96118.25;5085878;28;20687;-76
2022/11/12 04:11:02;;;;;;;7.72;4.68;;;;;;;9.10;80.87;96120.22;5070527;28;20441;-76
2022/11/12 04:13:28;;;;;;;5.57;4.53;;;;;;;9.11;80.95;96121.84;5072415;28;20243;-76
2022/11/12 04:21:55;;;;;;;5.67;3.87;;;;;;;8.94;81.13;96115.84;5092780;28;20218;-76
2022/11/12 04:27:23;;;;;;;6.63;4.00;;;;;;;8.80;81.08;96102.59;5072095;28;20259;-76
2022/11/12 04:32:36;;;;;;;6.45;4.30;;;;;;;8.76;82.02;96112.63;5090547;28;20450;-76
2022/11/12 04:35:03;;;;;;;7.75;4.80;;;;;;;8.76;81.97;96112.63;5090943;28;20399;-76
2022/11/12 04:37:43;;;;;;;8.53;4.17;;;;;;;8.75;81.85;96112.78;5091978;28;20220;-76
2022/11/12 04:45:40;;;;;;;6.33;4.37;;;;;;;8.83;81.55;96112.75;5084031;28;20693;-75
2022/11/12 04:48:06;;;;;;;8.60;6.17;;;;;;;8.83;80.77;96118.00;5082733;28;20178;-76
2022/11/12 04:50:32;;;;;;;8.20;6.00;;;;;;;8.80;80.86;96118.34;5091745;28;20594;-76
2022/11/12 04:52:57;;;;;;;8.83;5.57;;;;;;;8.80;81.39;96116.56;5091441;28;20177;-75
2022/11/12 04:55:22;;;;;;;8.63;5.90;;;;;;;8.78;81.20;96118.53;5091777;28;20589;-76
2022/11/12 04:57:48;;;;;;;9.30;5.57;;;;;;;8.67;81.01;96103.94;5075087;28;20167;-75
2022/11/12 05:00:13;;;;;;;15.37;6.33;;;;;;;8.72;80.81;96118.38;5065919;28;20940;-76
2022/11/12 05:02:39;;;;;;;11.60;5.90;;;;;;;8.80;81.81;96121.81;5065445;28;20175;-75
2022/11/12 05:05:04;;;;;;;10.37;5.60;;;;;;;8.81;80.46;96123.44;5064479;28;20233;-76
2022/11/12 05:07:31;;;;;;;6.77;5.23;;;;;;;8.87;80.47;96130.63;5071326;28;20663;-76
2022/11/12 05:09:57;;;;;;;9.57;5.50;;;;;;;8.88;79.79;96128.84;5071296;28;20174;-76
2022/11/12 05:12:22;;;;;;;11.60;5.77;;;;;;;8.83;80.18;96128.50;5053210;28;20667;-75
2022/11/12 05:14:47;;;;;;;10.30;5.97;;;;;;;8.87;80.20;96135.88;5070611;28;20170;-75
2022/11/12 05:17:13;;;;;;;10.70;6.22;;;;;;;8.94;79.69;96143.91;5069870;28;20405;-74
2022/11/12 05:19:38;;;;;;;8.33;5.73;;;;;;;8.72;80.07;96148.06;5069592;28;20414;-76
2022/11/12 05:22:04;;;;;;;9.68;5.85;;;;;;;8.74;80.44;96143.44;5070939;28;20451;-75
2022/11/12 05:24:31;;;;;;;8.48;5.20;;;;;;;8.63;80.45;96130.69;5069510;28;20955;-76
2022/11/12 05:26:56;;;;;;;9.27;5.10;;;;;;;8.86;79.72;96142.13;5070579;28;20406;-76
2022/11/12 05:29:22;;;;;;;8.00;4.87;;;;;;;8.90;79.58;96151.31;5070697;28;20189;-76
2022/11/12 05:31:47;;;;;;;6.83;4.63;;;;;;;8.96;79.39;96155.06;5070663;28;20216;-76
2022/11/12 05:34:13;;;;;;;7.33;4.90;;;;;;;8.94;78.96;96139.47;5086806;28;20593;-76
2022/11/12 05:36:38;;;;;;;8.60;5.10;;;;;;;8.92;79.41;96141.44;5091251;28;20244;-76
2022/11/12 05:39:04;;;;;;;9.67;5.43;;;;;;;9.05;79.52;96154.06;5090739;28;20181;-76
2022/11/12 05:41:29;;;;;;;11.53;5.33;;;;;;;9.06;79.44;96153.91;5082240;28;20295;-76
2022/11/12 05:43:54;;;;;;;8.67;4.80;;;;;;;9.07;78.58;96157.34;5090669;28;20612;-75
2022/11/12 05:46:20;;;;;;;10.70;5.23;;;;;;;8.98;78.83;96146.03;5090494;28;20182;-75
2022/11/12 05:48:46;;;;;;;12.97;5.23;;;;;;;9.02;78.73;96144.69;5090187;28;20257;-75
2022/11/12 05:51:14;;;;;;;9.83;6.30;;;;;;;8.97;78.51;96160.16;5090425;28;20181;-75
2022/11/12 05:53:40;;;;;;;15.57;5.90;;;;;;;8.78;79.21;96136.06;5090213;28;20189;-76
2022/11/12 05:56:07;;;;;;;11.00;5.50;;;;;;;8.90;79.76;96135.56;5090346;28;20188;-75
2022/11/12 05:58:32;;;;;;;9.97;5.37;;;;;;;9.23;79.39;96159.91;5090378;28;20253;-75
2022/11/12 06:00:58;;;;;;;10.20;5.97;;;;;;;9.40;78.56;96164.13;5080193;28;20256;-75
2022/11/12 06:03:25;;;;;;;9.90;5.50;;;;;;;9.45;76.77;96169.66;5070296;28;20174;-74
2022/11/12 06:05:51;;;;;;;10.87;5.33;;;;;;;9.39;77.08;96167.72;5070215;28;20222;-74
2022/11/12 06:08:17;;;;;;;11.13;5.50;;;;;;;9.43;77.21;96174.25;5070241;28;20177;-75
2022/11/12 06:10:47;;;;;;;9.87;5.10;;;;;;;9.54;76.62;96172.25;5070311;28;20179;-74
2022/11/12 06:13:12;;;;;;;9.17;5.20;;;;;;;9.61;76.85;96171.38;5053676;28;20244;-75
2022/11/12 06:15:37;;;;;;;14.27;5.30;;;;;;;9.79;77.79;96181.66;5074652;28;20170;-74
2022/11/12 06:18:03;;;;;;;10.50;5.73;;;;;;;10.00;76.39;96181.88;5074027;28;20261;-74
2022/11/12 06:20:28;;;;;;;8.77;5.60;;;;;;;10.43;74.93;96174.34;5074107;28;20176;-74
2022/11/12 06:22:56;;;;;;;10.90;5.70;;;;;;;10.84;73.29;96180.06;5073961;28;20253;-74
2022/11/12 06:25:21;;;;;;;10.43;6.07;;;;;;;11.11;72.08;96189.19;5073784;28;20210;-74
2022/11/12 06:27:47;;;;;;;9.13;6.53;;;;;;;11.31;70.49;96185.03;5073693;28;20239;-74
2022/11/12 06:30:13;;;;;;;12.23;6.63;;;;;;;11.49;69.84;96182.84;5082802;28;20207;-73
2022/11/12 06:32:38;;;;;;;15.03;6.80;;;;;;;12.04;69.33;96182.28;5094015;28;20241;-74
2022/11/12 06:35:04;;;;;;;7.80;5.57;;;;;;;12.40;66.82;96160.28;5093913;28;20235;-74
2022/11/12 06:37:29;;;;;;;11.63;5.00;;;;;;;13.05;65.31;96175.03;5093868;28;20170;-74
2022/11/12 06:39:54;;;;;;;10.43;5.67;;;;;;;13.85;62.85;96183.19;5093919;28;20268;-73
2022/11/12 06:42:20;;;;;;;12.40;5.50;;;;;;;14.43;61.25;96191.56;5093660;28;20223;-73
2022/11/12 06:44:45;;;;;;;9.30;5.33;;;;;;;15.09;59.83;96202.19;5093795;28;20229;-74
2022/11/12 06:47:11;;;;;;;8.03;5.57;;;;;;;15.95;57.56;96207.31;5093651;28;20177;-73
2022/11/12 06:49:36;;;;;;;10.50;5.23;;;;;;;15.29;56.23;96202.97;5093616;28;20170;-73
2022/11/12 06:52:02;;;;;;;8.07;4.97;;;;;;;14.32;58.08;96202.72;5094096;28;20185;-75
2022/11/12 06:54:27;;;;;;;10.53;5.47;;;;;;;13.49;61.28;96196.69;5086019;28;20170;-74
2022/11/12 06:56:53;;;;;;;9.87;5.50;;;;;;;13.07;62.54;96202.06;5073453;28;20672;-75
2022/11/12 06:59:18;;;;;;;8.67;5.80;;;;;;;12.75;64.07;96195.53;5073213;28;20174;-75
2022/11/12 07:01:44;;;;;;;12.43;6.93;;;;;;;12.40;65.09;96194.63;5072917;28;20182;-75
2022/11/12 07:04:09;;;;;;;12.13;5.80;;;;;;;11.83;66.61;96192.81;5073085;28;20189;-75
2022/11/12 07:06:35;;;;;;;11.53;5.80;;;;;;;11.33;67.93;96180.34;5073132;28;20218;-74
2022/11/12 07:09:02;;;;;;;13.43;6.03;;;;;;;10.99;69.32;96159.81;5083951;28;20169;-74
2022/11/12 07:11:28;;;;;;;9.50;5.70;;;;;;;11.12;70.07;96188.19;5093268;28;20205;-75
2022/11/12 07:13:53;;;;;;;12.03;5.40;;;;;;;11.02;69.95;96187.63;5093261;28;20184;-75
2022/11/12 07:16:18;;;;;;;15.30;5.57;;;;;;;10.89;70.78;96172.47;5093202;28;20166;-75
2022/11/12 07:18:45;;;;;;;8.27;4.73;;;;;;;10.94;71.42;96181.44;5093200;28;20622;-74
2022/11/12 07:21:13;;;;;;;9.13;5.40;;;;;;;10.83;71.50;96183.69;5093133;28;20616;-75
2022/11/12 07:23:39;;;;;;;12.17;6.67;;;;;;;10.85;71.53;96179.06;5093151;28;20238;-75
2022/11/12 07:26:11;;;;;;;14.43;7.47;;;;;;;10.90;71.94;96174.06;5092001;28;20623;-75
2022/11/12 07:28:36;;;;;;;9.33;5.87;;;;;;;10.88;71.52;96173.44;5092969;28;20173;-74
2022/11/12 07:31:08;;;;;;;9.60;5.77;;;;;;;10.84;70.92;96183.53;5084339;28;20251;-75
2022/11/12 07:33:34;;;;;;;11.47;6.07;;;;;;;10.85;71.11;96182.53;5093140;28;20166;-76
2022/11/12 07:36:09;;;;;;;8.63;5.27;;;;;;;10.78;70.89;96176.34;5076823;28;20167;-76
2022/11/12 07:38:37;;;;;;;7.87;4.40;;;;;;;10.87;70.01;96177.91;5064998;28;20992;-75
2022/11/12 07:41:08;;;;;;;6.27;3.90;;;;;;;10.80;70.22;96184.88;5088619;28;20591;-76
2022/11/12 07:43:35;;;;;;;6.47;4.47;;;;;;;10.83;69.48;96183.69;5084384;28;20218;-76
2022/11/12 07:46:06;;;;;;;11.67;4.77;;;;;;;10.69;69.63;96174.78;5092884;28;20197;-76
2022/11/12 07:48:32;;;;;;;9.67;4.93;;;;;;;10.68;70.50;96181.03;5092553;28;20209;-76
2022/11/12 07:51:00;;;;;;;8.13;4.90;;;;;;;10.75;71.06;96181.97;5092767;28;20590;-76
2022/11/12 07:53:26;;;;;;;11.30;6.67;;;;;;;10.83;70.04;96183.69;5092708;28;20231;-77
2022/11/12 07:55:56;;;;;;;13.70;7.87;;;;;;;10.78;69.63;96186.88;5092562;28;20170;-76
2022/11/12 07:58:22;;;;;;;14.00;7.23;;;;;;;10.67;70.14;96178.59;5092704;28;20205;-76
2022/11/12 08:00:48;;;;;;;9.40;6.13;;;;;;;10.57;70.09;96158.59;5083978;28;20189;-76
2022/11/12 08:03:14;;;;;;;9.53;5.27;;;;;;;10.69;70.42;96190.59;5092449;28;20248;-76
2022/11/12 08:05:39;;;;;;;10.47;6.33;;;;;;;10.73;70.63;96191.03;5091898;28;20791;-76
2022/11/12 08:08:04;;;;;;;9.70;5.07;;;;;;;10.76;70.17;96198.59;5092255;28;20177;-75
2022/11/12 08:10:30;;;;;;;9.57;5.90;;;;;;;10.76;70.53;96190.69;5092175;28;20199;-76
2022/11/12 08:12:56;;;;;;;9.07;5.57;;;;;;;10.73;70.04;96199.75;5089823;28;20227;-77
2022/11/12 08:15:21;;;;;;;10.57;5.33;;;;;;;10.49;70.40;96156.03;5072017;28;20174;-77
2022/11/12 08:17:46;;;;;;;8.27;4.83;;;;;;;10.72;70.04;96198.13;5072056;28;20162;-77
2022/11/12 08:20:13;;;;;;;9.03;4.73;;;;;;;10.72;70.20;96197.31;5075721;28;20560;-77
2022/11/12 08:22:38;;;;;;;7.30;4.90;;;;;;;10.53;69.87;96202.06;5077154;28;20578;-76
2022/11/12 08:25:04;;;;;;;8.03;4.40;;;;;;;10.60;70.12;96199.53;5071436;28;20205;-75
2022/11/12 08:27:29;;;;;;;8.83;4.97;;;;;;;10.63;69.91;96196.56;5071647;28;20174;-76
2022/11/12 08:29:55;;;;;;;7.00;4.30;;;;;;;10.69;69.24;96195.84;5080471;28;20177;-77
2022/11/12 08:32:20;;;;;;;9.03;4.77;;;;;;;10.61;69.46;96198.56;5091995;28;20173;-76
2022/11/12 08:34:46;;;;;;;8.53;4.77;;;;;;;10.55;69.71;96200.06;5077001;28;20174;-77
2022/11/12 08:37:12;;;;;;;7.33;4.77;;;;;;;10.58;69.61;96191.00;5071679;28;20548;-75
2022/11/12 08:39:37;;;;;;;8.93;5.43;;;;;;;10.58;69.49;96196.25;5071668;28;20639;-75
2022/11/12 08:42:03;;;;;;;6.83;4.80;;;;;;;10.62;68.83;96199.38;5069072;28;20315;-75
2022/11/12 08:44:29;;;;;;;9.90;5.23;;;;;;;10.46;69.59;96198.53;5080840;28;20261;-76
2022/11/12 08:46:54;;;;;;;7.93;4.83;;;;;;;10.35;69.71;96187.56;5074488;28;20235;-76
2022/11/12 08:49:19;;;;;;;6.40;3.80;;;;;;;10.43;68.94;96204.13;5069295;28;20310;-76
2022/11/12 08:51:45;;;;;;;11.17;4.40;;;;;;;10.38;69.22;96200.41;5065675;28;20183;-76
2022/11/12 08:54:10;;;;;;;8.27;4.10;;;;;;;10.47;69.36;96205.41;5067626;28;20181;-76
2022/11/12 08:56:35;;;;;;;6.73;4.47;;;;;;;10.54;69.21;96200.25;5062230;28;20665;-78
2022/11/12 08:59:01;;;;;;;7.23;4.77;;;;;;;10.46;68.88;96198.53;5066221;28;20189;-77
2022/11/12 09:01:26;;;;;;;5.70;4.17;;;;;;;10.38;69.04;96180.13;5065787;28;20190;-77
2022/11/12 09:03:52;;;;;;;5.13;3.27;;;;;;;10.54;68.06;96201.09;5062664;28;20183;-77
2022/11/12 09:06:17;;;;;;;6.43;3.77;;;;;;;10.67;68.04;96205.72;5064796;28;20240;-77
2022/11/12 09:08:42;;;;;;;5.60;3.63;;;;;;;10.47;68.83;96183.50;5071520;28;20201;-77
2022/11/12 09:11:08;;;;;;;6.47;4.30;;;;;;;10.59;68.62;96190.81;5062329;28;20163;-76
2022/11/12 09:13:33;;;;;;;8.97;4.10;;;;;;;10.74;68.84;96196.13;5065010;28;20178;-75
2022/11/12 09:16:04;;;;;;;7.83;4.67;;;;;;;10.71;67.91;96169.34;5067912;28;20656;-76
2022/11/12 09:18:30;;;;;;;5.57;3.73;;;;;;;10.89;66.83;96178.56;5061511;28;20237;-76
2022/11/12 09:21:11;;;;;;;8.70;3.70;;;;;;;10.94;66.91;96197.25;5068528;28;20175;-76
2022/11/12 09:23:38;;;;;;;6.87;3.47;;;;;;;11.00;67.46;96193.06;5067468;28;20185;-75
2022/11/12 09:26:04;;;;;;;6.90;3.73;;;;;;;10.84;67.00;96178.25;5066077;28;20202;-75
2022/11/12 09:28:30;;;;;;;6.40;3.53;;;;;;;10.90;66.80;96205.69;5067098;28;20179;-76
2022/11/12 09:30:56;;;;;;;6.07;2.80;;;;;;;10.90;67.04;96205.69;5065285;28;20285;-76
2022/11/12 09:33:28;;;;;;;5.83;3.60;;;;;;;10.83;67.25;96199.50;5064366;28;20189;-75
2022/11/12 09:35:54;;;;;;;5.23;3.33;;;;;;;10.81;66.84;96181.22;5067663;28;20206;-76
2022/11/12 09:38:21;;;;;;;9.50;3.37;;;;;;;10.76;66.70;96180.97;5054205;28;20615;-77
2022/11/12 09:40:52;;;;;;;6.67;3.73;;;;;;;10.89;67.04;96202.25;5063962;28;20713;-75
2022/11/12 09:43:43;;;;;;;5.23;3.20;;;;;;;10.68;67.26;96198.66;5059680;28;20202;-75
2022/11/12 09:46:18;;;;;;;5.17;3.90;;;;;;;10.54;67.42;96181.84;5061671;28;20653;-76
2022/11/12 09:48:51;;;;;;;5.63;3.87;;;;;;;10.66;67.75;96201.47;5066605;28;20273;-76
2022/11/12 09:51:25;;;;;;;5.20;2.97;;;;;;;10.62;66.51;96189.66;5048086;28;20564;-76
2022/11/12 09:53:50;;;;;;;8.50;3.73;;;;;;;10.80;66.31;96208.59;5058509;28;20170;-76
2022/11/12 09:56:19;;;;;;;8.03;3.20;;;;;;;10.79;67.68;96206.13;5063733;28;20174;-75
2022/11/12 09:58:44;;;;;;;7.47;3.10;;;;;;;10.69;67.44;96201.13;5057135;28;20182;-74
2022/11/12 10:01:52;;;;;;;6.17;4.10;;;;;;;10.78;67.78;96201.88;5061602;28;20244;-75
2022/11/12 10:04:44;;;;;;;3.73;2.13;;;;;;;10.73;64.14;96196.28;5002757;28;20667;-75
2022/11/12 10:07:36;;;;;;;3.83;2.40;;;;;;;10.80;64.57;96207.78;5063997;28;20717;-74
2022/11/12 10:10:12;;;;;;;3.07;2.47;;;;;;;10.91;63.67;96197.59;5057574;28;20182;-74
2022/11/12 10:12:46;;;;;;;4.33;2.87;;;;;;;11.00;63.03;96198.34;5058526;28;20653;-74
2022/11/12 10:18:48;;;;;;;6.83;2.40;;;;;;;11.03;63.38;96205.91;5062893;28;20201;-74
2022/11/12 10:21:23;;;;;;;4.97;2.40;;;;;;;10.92;63.72;96215.06;5012906;28;20580;-74
2022/11/12 10:23:51;;;;;;;3.77;2.60;;;;;;;10.93;63.87;96200.88;5062255;28;20188;-74
2022/11/12 10:26:19;;;;;;;3.97;2.53;;;;;;;11.05;64.26;96197.81;5058018;28;20637;-75
2022/11/12 10:29:12;;;;;;;7.13;3.23;;;;;;;10.90;66.98;96195.97;5066078;28;20182;-75
2022/11/12 10:31:38;;;;;;;5.60;3.67;;;;;;;10.79;68.36;96200.88;5064645;28;20178;-75
2022/11/12 10:34:12;;;;;;;5.20;3.33;;;;;;;10.53;69.95;96201.25;5064663;28;20178;-75
2022/11/12 10:36:41;;;;;;;7.03;3.63;;;;;;;10.55;70.18;96204.53;5055958;28;20308;-75
2022/11/12 10:39:09;;;;;;;6.70;3.60;;;;;;;10.61;70.12;96195.91;5063432;28;20207;-75
2022/11/12 10:41:37;;;;;;;12.70;3.90;;;;;;;10.56;70.24;96192.97;5063992;28;20188;-75
2022/11/12 10:44:05;;;;;;;7.10;3.63;;;;;;;10.42;70.90;96196.41;5065633;28;20174;-75
2022/11/12 10:46:37;;;;;;;6.27;3.63;;;;;;;10.35;71.63;96198.94;5065460;28;20199;-75
2022/11/12 10:49:14;;;;;;;6.33;3.80;;;;;;;10.30;72.15;96203.06;5059332;28;20559;-74
2022/11/12 10:51:52;;;;;;;6.53;3.60;;;;;;;10.23;72.95;96195.06;5059279;28;20658;-75
2022/11/12 10:55:03;;;;;;;7.13;4.00;;;;;;;10.08;73.95;96192.34;5060719;28;20182;-75
2022/11/12 10:57:30;;;;;;;7.93;4.53;;;;;;;10.09;74.71;96196.59;5009406;28;20240;-75
2022/11/12 11:00:18;;;;;;;6.67;3.70;;;;;;;10.12;74.58;96198.06;5056563;28;20734;-75
2022/11/12 11:02:54;;;;;;;5.67;4.50;;;;;;;10.16;74.16;96194.91;5065503;28;20559;-74
2022/11/12 11:05:47;;;;;;;5.23;3.00;;;;;;;10.19;74.54;96199.88;5050015;28;20240;-75
2022/11/12 11:08:12;;;;;;;5.90;3.87;;;;;;;10.23;73.94;96196.88;5064850;28;20719;-76
2022/11/12 11:10:42;;;;;;;5.73;4.03;;;;;;;10.26;74.54;96186.00;5062642;28;20179;-76
2022/11/12 11:13:17;;;;;;;7.17;4.27;;;;;;;10.25;74.55;96197.50;5062856;28;20191;-76
2022/11/12 11:15:58;;;;;;;7.00;3.50;;;;;;;10.37;74.22;96190.84;5060506;28;20185;-76
2022/11/12 11:18:24;;;;;;;7.17;3.73;;;;;;;10.46;73.20;96189.81;5067792;28;20179;-76
2022/11/12 11:21:12;;;;;;;6.23;3.90;;;;;;;10.55;73.18;96186.09;5062949;28;20974;-76
2022/11/12 11:24:00;;;;;;;5.77;3.30;;;;;;;10.51;72.37;96174.28;5031579;28;20195;-76
2022/11/12 11:26:50;;;;;;;4.90;3.47;;;;;;;10.60;72.30;96186.38;5064194;28;20190;-76
2022/11/12 11:29:27;;;;;;;8.10;3.87;;;;;;;10.57;72.32;96184.91;5081985;28;20173;-75
2022/11/12 11:32:18;;;;;;;5.13;2.90;;;;;;;10.54;71.34;96185.28;5080528;28;20882;-76
2022/11/12 11:34:46;;;;;;;3.93;3.23;;;;;;;10.65;70.82;96188.47;5060049;28;20182;-76
2022/11/12 11:37:30;;;;;;;6.03;3.03;;;;;;;10.78;70.34;96197.41;5065276;28;20178;-76
2022/11/12 11:40:29;;;;;;;4.37;3.23;;;;;;;10.75;70.10;96199.56;5062298;28;20182;-76
2022/11/12 11:43:15;;;;;;;6.53;3.00;;;;;;;10.65;70.56;96197.19;5049174;28;20662;-76
2022/11/12 11:46:10;;;;;;;3.50;2.47;;;;;;;10.54;70.51;96192.38;5061648;28;20390;-76
2022/11/12 11:49:00;;;;;;;8.37;3.20;;;;;;;10.63;70.98;96193.94;5063857;28;20612;-75
2022/11/12 11:51:58;;;;;;;4.30;2.80;;;;;;;10.65;71.99;96196.38;5070181;28;20712;-74
2022/11/12 11:54:41;;;;;;;5.17;3.03;;;;;;;10.52;72.60;96186.44;5062100;28;20175;-74
2022/11/12 11:57:15;;;;;;;4.30;3.07;;;;;;;10.33;73.51;96173.75;5064660;28;20182;-75
2022/11/12 12:00:19;;;;;;;5.77;3.20;;;;;;;10.29;74.48;96191.72;5069970;28;20887;-75
2022/11/12 12:02:53;;;;;;;7.43;3.50;;;;;;;10.31;74.25;96194.16;5063902;28;20185;-75
2022/11/12 12:05:25;;;;;;;6.40;3.23;;;;;;;10.37;73.95;96196.94;5060385;28;20249;-76